createdAt,value
2022-10-02T00:03:06.599Z,1.67
2022-10-02T00:06:18.915Z,1.45
2022-10-02T00:09:31.956Z,1.48
2022-10-02T00:12:36.261Z,1.75
2022-10-02T00:15:42.275Z,2.72
2022-10-02T00:18:45.966Z,1.55
2022-10-02T00:22:24.802Z,1.60
2022-10-02T00:25:42.098Z,1.40
2022-10-02T00:29:03.132Z,1.52
2022-10-02T00:35:47.515Z,1.85
2022-10-02T00:39:06.625Z,1.70
2022-10-02T00:42:23.156Z,1.55
2022-10-02T00:46:10.012Z,1.63
2022-10-02T00:49:30.609Z,1.88
2022-10-02T00:53:03.366Z,1.55
2022-10-02T00:56:05.353Z,2.00
2022-10-02T00:59:07.097Z,2.22
2022-10-02T01:02:39.249Z,1.90
2022-10-02T01:05:41.770Z,1.90
2022-10-02T01:08:43.707Z,2.35
2022-10-02T01:11:46.280Z,2.15
2022-10-02T01:14:48.423Z,1.80
2022-10-02T01:17:52.226Z,1.50
2022-10-02T01:21:01.234Z,1.73
2022-10-02T01:24:22.373Z,1.85
2022-10-02T01:27:25.429Z,1.92
2022-10-02T01:30:30.557Z,2.20
2022-10-02T01:33:33.420Z,2.05
2022-10-02T01:36:35.917Z,1.92
2022-10-02T01:39:38.090Z,2.15
2022-10-02T01:42:40.921Z,2.78
2022-10-02T01:46:01.998Z,2.63
2022-10-02T01:49:44.467Z,2.25
2022-10-02T01:53:07.978Z,2.30
2022-10-02T01:56:30.175Z,2.88
2022-10-02T02:00:09.142Z,3.22
2022-10-02T02:03:37.520Z,2.60
2022-10-02T02:06:46.976Z,2.78
2022-10-02T02:09:54.402Z,3.10
2022-10-02T02:13:02.977Z,2.53
2022-10-02T02:16:23.666Z,3.25
2022-10-02T02:19:31.260Z,2.92
2022-10-02T02:22:51.918Z,3.17
2022-10-02T02:26:00.263Z,4.18
2022-10-02T02:29:05.769Z,4.07
2022-10-02T02:32:10.279Z,4.50
2022-10-02T02:35:20.717Z,4.00
2022-10-02T02:38:33.366Z,4.22
2022-10-02T02:41:42.904Z,5.30
2022-10-02T02:44:52.960Z,5.20
2022-10-02T02:48:00.375Z,4.90
2022-10-02T02:51:10.133Z,5.97
2022-10-02T02:54:19.659Z,5.90
2022-10-02T02:57:29.266Z,6.65
2022-10-02T03:00:31.511Z,6.55
2022-10-02T03:03:33.462Z,7.38
2022-10-02T03:06:48.786Z,8.40
2022-10-02T03:10:21.317Z,6.95
2022-10-02T03:13:34.327Z,7.50
2022-10-02T03:17:20.036Z,8.02
2022-10-02T03:20:48.326Z,8.98
2022-10-02T03:24:01.975Z,8.70
2022-10-02T03:27:21.163Z,9.50
2022-10-02T03:30:24.391Z,10.30
2022-10-02T03:33:27.728Z,10.70
2022-10-02T03:36:31.232Z,10.75
2022-10-02T03:39:33.248Z,10.50
2022-10-02T03:42:36.796Z,8.90
2022-10-02T03:45:50.858Z,9.50
2022-10-02T03:48:53.183Z,7.65
2022-10-02T03:51:55.269Z,7.63
2022-10-02T03:55:01.855Z,7.50
2022-10-02T03:58:13.624Z,7.40
2022-10-02T04:01:35.277Z,7.47
2022-10-02T04:04:47.874Z,7.70
2022-10-02T04:07:56.517Z,7.88
2022-10-02T04:11:15.079Z,8.07
2022-10-02T04:14:22.828Z,7.03
2022-10-02T04:17:37.421Z,8.27
2022-10-02T04:21:10.700Z,8.02
2022-10-02T04:24:38.308Z,7.95
2022-10-02T04:27:41.152Z,9.40
2022-10-02T04:30:43.227Z,9.93
2022-10-02T04:33:45.999Z,9.88
2022-10-02T04:37:29.392Z,11.07
2022-10-02T04:41:09.752Z,10.82
2022-10-02T04:44:11.621Z,11.68
2022-10-02T04:47:47.422Z,10.43
2022-10-02T04:50:57.716Z,11.10
2022-10-02T04:54:34.125Z,12.43
2022-10-02T04:57:38.982Z,10.27
2022-10-02T05:00:49.235Z,10.43
2022-10-02T05:04:15.982Z,10.57
2022-10-02T05:07:41.769Z,12.05
2022-10-02T05:10:58.809Z,11.73
2022-10-02T05:14:18.849Z,11.75
2022-10-02T05:17:20.614Z,12.17
2022-10-02T05:20:53.599Z,11.38
2022-10-02T05:24:35.096Z,11.20
2022-10-02T05:27:36.814Z,11.88
2022-10-02T05:31:05.587Z,12.23
2022-10-02T05:34:31.414Z,12.35
2022-10-02T05:38:10.552Z,10.35
2022-10-02T05:41:58.934Z,12.20
2022-10-02T05:45:06.179Z,10.55
2022-10-02T05:48:27.945Z,11.60
2022-10-02T05:51:40.244Z,11.25
2022-10-02T05:54:55.220Z,11.43
2022-10-02T05:58:16.816Z,10.32
2022-10-02T06:01:42.233Z,10.65
2022-10-02T06:04:53.661Z,10.32
2022-10-02T06:08:02.694Z,10.07
2022-10-02T06:11:27.158Z,10.13
2022-10-02T06:14:51.047Z,10.07
2022-10-02T06:18:04.509Z,8.68
2022-10-02T06:21:16.357Z,8.02
2022-10-02T06:24:27.040Z,7.25
2022-10-02T06:28:02.880Z,7.57
2022-10-02T06:31:16.406Z,7.45
2022-10-02T06:34:18.554Z,7.10
2022-10-02T06:37:50.961Z,7.00
2022-10-02T06:41:24.923Z,6.53
2022-10-02T06:44:59.094Z,6.13
2022-10-02T06:48:06.151Z,7.28
2022-10-02T06:51:26.835Z,6.05
2022-10-02T06:54:56.856Z,6.60
2022-10-02T06:58:39.910Z,7.20
2022-10-02T07:01:47.530Z,6.78
2022-10-02T07:05:03.371Z,6.40
2022-10-02T07:08:16.963Z,7.03
2022-10-02T07:11:43.912Z,7.00
2022-10-02T07:15:06.692Z,7.45
2022-10-02T07:18:19.782Z,7.15
2022-10-02T07:21:58.878Z,7.55
2022-10-02T07:25:31.768Z,6.78
2022-10-02T07:28:57.711Z,7.40
2022-10-02T07:32:31.779Z,7.03
2022-10-02T07:35:53.955Z,6.93
2022-10-02T07:39:31.544Z,6.50
2022-10-02T07:43:04.860Z,6.03
2022-10-02T07:46:34.701Z,6.28
2022-10-02T07:49:49.109Z,5.50
2022-10-02T07:53:31.360Z,6.15
2022-10-02T07:56:35.067Z,5.18
2022-10-02T07:59:40.907Z,5.53
2022-10-02T08:02:46.679Z,6.05
2022-10-02T08:05:59.776Z,5.32
2022-10-02T08:09:25.229Z,5.45
2022-10-02T08:12:34.105Z,4.90
2022-10-02T08:15:38.785Z,6.38
2022-10-02T08:18:53.785Z,4.68
2022-10-02T08:22:21.374Z,5.20
2022-10-02T08:25:34.661Z,4.78
2022-10-02T08:28:36.359Z,4.78
2022-10-02T08:31:38.342Z,4.63
2022-10-02T08:34:42.046Z,4.97
2022-10-02T08:38:10.128Z,4.07
2022-10-02T08:41:25.931Z,4.60
2022-10-02T08:44:54.008Z,4.03
2022-10-02T08:48:34.298Z,4.03
2022-10-02T08:52:03.190Z,3.53
2022-10-02T08:55:39.114Z,3.80
2022-10-02T08:58:57.978Z,4.00
2022-10-02T09:02:37.443Z,4.28
2022-10-02T09:06:10.181Z,4.28
2022-10-02T09:09:31.994Z,3.60
2022-10-02T09:13:04.586Z,3.50
2022-10-02T09:16:38.470Z,3.30
2022-10-02T09:19:42.049Z,3.67
2022-10-02T09:23:20.770Z,3.72
2022-10-02T09:26:28.523Z,3.85
2022-10-02T09:30:08.008Z,4.47
2022-10-02T09:33:34.214Z,4.22
2022-10-02T09:37:13.384Z,3.58
2022-10-02T09:41:02.768Z,3.22
2022-10-02T09:44:43.828Z,2.60
2022-10-02T09:51:42.427Z,3.63
2022-10-02T09:54:50.025Z,2.92
2022-10-02T09:58:30.021Z,2.53
2022-10-02T10:01:54.034Z,2.40
2022-10-02T10:05:43.590Z,3.05
2022-10-02T10:09:18.694Z,2.45
2022-10-02T10:12:34.927Z,2.60
2022-10-02T10:16:13.718Z,2.47
2022-10-02T10:19:35.822Z,1.95
2022-10-02T10:23:03.676Z,1.63
2022-10-02T10:26:23.968Z,1.85
2022-10-02T10:30:04.169Z,2.58
2022-10-02T10:33:28.161Z,1.90
2022-10-02T10:37:14.608Z,2.30
2022-10-02T10:40:54.055Z,1.75
2022-10-02T10:44:19.552Z,2.08
2022-10-02T10:48:06.105Z,2.40
2022-10-02T10:51:32.605Z,2.00
2022-10-02T10:54:48.869Z,2.10
2022-10-02T10:58:15.685Z,1.92
2022-10-02T11:01:42.028Z,2.35
2022-10-02T11:05:01.573Z,2.22
2022-10-02T11:08:22.017Z,2.45
2022-10-02T11:11:31.692Z,2.05
2022-10-02T11:14:52.081Z,2.15
2022-10-02T11:18:14.673Z,2.25
2022-10-02T11:21:51.952Z,2.22
2022-10-02T11:25:19.585Z,1.80
2022-10-02T11:28:38.540Z,2.22
2022-10-02T11:31:53.966Z,2.63
2022-10-02T11:35:14.130Z,2.03
2022-10-02T11:39:04.880Z,2.50
2022-10-02T11:42:06.871Z,2.45
2022-10-02T11:45:48.129Z,2.17
2022-10-02T11:49:06.825Z,2.30
2022-10-02T11:52:21.430Z,2.60
2022-10-02T11:55:38.958Z,2.38
2022-10-02T11:58:54.461Z,1.45
2022-10-02T12:02:25.585Z,1.25
2022-10-02T12:05:58.278Z,1.20
2022-10-02T12:09:21.729Z,1.23
2022-10-02T12:12:41.916Z,1.42
2022-10-02T12:16:17.429Z,1.35
2022-10-02T12:19:22.555Z,1.60
2022-10-02T12:23:15.884Z,1.80
2022-10-02T12:26:52.760Z,1.52
2022-10-02T12:30:08.541Z,1.38
2022-10-02T12:33:17.140Z,1.63
2022-10-02T12:36:40.809Z,1.73
2022-10-02T12:39:57.963Z,2.80
2022-10-02T12:43:19.528Z,2.83
2022-10-02T12:46:59.662Z,2.25
2022-10-02T12:50:23.854Z,1.90
2022-10-02T12:54:05.422Z,1.63
2022-10-02T12:57:51.328Z,1.27
2022-10-02T13:01:16.849Z,1.50
2022-10-02T13:05:17.143Z,1.15
2022-10-02T13:08:28.089Z,1.33
2022-10-02T13:11:36.261Z,1.60
2022-10-02T13:14:52.733Z,1.00
2022-10-02T13:17:57.637Z,2.17
2022-10-02T13:21:37.691Z,1.70
2022-10-02T13:25:17.453Z,1.00
2022-10-02T13:28:54.516Z,1.13
2022-10-02T13:32:31.769Z,1.27
2022-10-02T13:35:52.355Z,1.20
2022-10-02T13:39:08.259Z,1.38
2022-10-02T13:42:40.437Z,1.00
2022-10-02T13:46:06.578Z,0.93
2022-10-02T13:49:15.887Z,1.40
2022-10-02T13:52:24.809Z,1.03
2022-10-02T13:55:30.870Z,1.02
2022-10-02T13:59:11.063Z,1.17
2022-10-02T14:02:39.521Z,1.35
2022-10-02T14:05:50.440Z,1.40
2022-10-02T14:09:11.901Z,1.00
2022-10-02T14:12:52.366Z,1.13
2022-10-02T14:16:20.095Z,1.20
2022-10-02T14:19:52.463Z,1.10
2022-10-02T14:23:19.747Z,1.10
2022-10-02T14:26:58.702Z,1.05
2022-10-02T14:30:11.203Z,1.30
2022-10-02T14:33:28.513Z,1.10
2022-10-02T14:36:48.838Z,1.30
2022-10-02T14:39:51.230Z,1.15
2022-10-02T14:43:18.729Z,1.42
2022-10-02T14:46:38.944Z,1.30
2022-10-02T14:49:59.419Z,1.48
2022-10-02T14:53:01.960Z,1.65
2022-10-02T14:56:22.289Z,1.27
2022-10-02T14:59:39.190Z,1.48
2022-10-02T15:03:10.348Z,1.15
2022-10-02T15:06:37.489Z,1.40
2022-10-02T15:09:39.859Z,1.40
2022-10-02T15:12:59.637Z,0.75
2022-10-02T15:16:44.456Z,1.05
2022-10-02T15:19:54.894Z,1.08
2022-10-02T15:23:02.480Z,1.23
2022-10-02T15:26:29.289Z,1.80
2022-10-02T15:29:49.667Z,1.50
2022-10-02T15:33:11.491Z,1.38
2022-10-02T15:36:29.929Z,1.35
2022-10-02T15:40:05.553Z,1.50
2022-10-02T15:43:12.094Z,1.63
2022-10-02T15:46:51.261Z,1.55
2022-10-02T15:50:26.270Z,1.40
2022-10-02T15:53:44.103Z,1.63
2022-10-02T15:56:51.770Z,2.03
2022-10-02T16:00:03.447Z,1.80
2022-10-02T16:03:26.268Z,2.08
2022-10-02T16:06:50.681Z,1.52
2022-10-02T16:10:14.188Z,2.03
2022-10-02T16:13:31.208Z,1.55
2022-10-02T16:16:40.532Z,1.70
2022-10-02T16:20:14.337Z,1.88
2022-10-02T16:23:34.466Z,1.88
2022-10-02T16:27:12.970Z,2.17
2022-10-02T16:30:16.998Z,1.35
2022-10-02T16:33:21.367Z,1.48
2022-10-02T16:36:38.680Z,1.35
2022-10-02T16:40:29.211Z,1.40
2022-10-02T16:43:31.263Z,1.73
2022-10-02T16:46:32.803Z,1.70
2022-10-02T16:50:17.223Z,1.88
2022-10-02T16:53:34.651Z,1.73
2022-10-02T16:57:05.262Z,1.83
2022-10-02T17:00:13.102Z,2.00
2022-10-02T17:03:37.021Z,1.80
2022-10-02T17:06:45.502Z,1.98
2022-10-02T17:10:06.037Z,2.20
2022-10-02T17:13:12.278Z,2.25
2022-10-02T17:16:27.348Z,1.80
2022-10-02T17:19:35.112Z,1.88
2022-10-02T17:22:43.057Z,1.92
2022-10-02T17:25:50.401Z,2.10
2022-10-02T17:29:06.929Z,2.10
2022-10-02T17:32:09.776Z,2.33
2022-10-02T17:35:42.800Z,1.70
2022-10-02T17:38:47.262Z,2.00
2022-10-02T17:42:12.423Z,1.73
2022-10-02T17:45:26.647Z,2.47
2022-10-02T17:48:41.722Z,2.10
2022-10-02T17:52:24.677Z,2.42
2022-10-02T17:55:51.927Z,2.35
2022-10-02T17:59:26.414Z,2.47
2022-10-02T18:02:47.522Z,1.90
2022-10-02T18:09:28.254Z,2.27
2022-10-02T18:12:51.724Z,2.45
2022-10-02T18:16:18.881Z,2.17
2022-10-02T18:19:26.569Z,2.13
2022-10-02T18:23:10.456Z,2.13
2022-10-02T18:26:16.694Z,2.63
2022-10-02T18:29:38.913Z,2.65
2022-10-02T18:33:25.397Z,2.17
2022-10-02T18:37:04.863Z,2.50
2022-10-02T18:40:35.749Z,2.25
2022-10-02T18:43:47.673Z,2.40
2022-10-02T18:47:32.010Z,2.30
2022-10-02T18:50:56.171Z,2.08
2022-10-02T18:54:19.136Z,2.35
2022-10-02T18:57:45.939Z,2.33
2022-10-02T19:01:00.091Z,2.10
2022-10-02T19:04:29.356Z,2.47
2022-10-02T19:07:56.440Z,2.15
2022-10-02T19:10:59.142Z,1.83
2022-10-02T19:14:13.775Z,2.20
2022-10-02T19:17:22.483Z,2.13
2022-10-02T19:20:49.270Z,1.67
2022-10-02T19:24:15.583Z,1.77
2022-10-02T19:27:32.523Z,2.30
2022-10-02T19:30:35.676Z,2.67
2022-10-02T19:33:53.719Z,1.95
2022-10-02T19:37:00.624Z,2.40
2022-10-02T19:40:03.981Z,2.10
2022-10-02T19:43:32.769Z,2.10
2022-10-02T19:46:51.038Z,2.22
2022-10-02T19:49:53.841Z,2.15
2022-10-02T19:53:01.439Z,1.92
2022-10-02T19:56:17.888Z,1.88
2022-10-02T19:59:26.231Z,2.95
2022-10-02T20:02:42.707Z,2.35
2022-10-02T20:05:47.206Z,2.13
2022-10-02T20:08:55.007Z,2.17
2022-10-02T20:12:06.447Z,2.42
2022-10-02T20:15:45.149Z,2.17
2022-10-02T20:18:50.669Z,2.30
2022-10-02T20:21:58.285Z,2.28
2022-10-02T20:25:11.591Z,2.20
2022-10-02T20:28:21.088Z,1.83
2022-10-02T20:31:40.072Z,3.13
2022-10-02T20:34:53.748Z,1.92
2022-10-02T20:37:59.730Z,1.75
2022-10-02T20:41:28.406Z,2.38
2022-10-02T20:44:33.244Z,1.95
2022-10-02T20:47:53.749Z,2.45
2022-10-02T20:51:02.023Z,2.30
2022-10-02T20:54:20.043Z,2.47
2022-10-02T20:58:00.604Z,3.13
2022-10-02T21:01:33.011Z,2.33
2022-10-02T21:04:50.968Z,2.33
2022-10-02T21:08:37.806Z,2.00
2022-10-02T21:11:43.508Z,2.33
2022-10-02T21:14:52.433Z,2.22
2022-10-02T21:18:07.281Z,2.88
2022-10-02T21:21:21.271Z,2.15
2022-10-02T21:24:52.631Z,1.95
2022-10-02T21:28:23.322Z,1.73
2022-10-02T21:31:34.081Z,2.00
2022-10-02T21:35:10.399Z,2.72
2022-10-02T21:38:19.308Z,2.97
2022-10-02T21:41:51.215Z,2.83
2022-10-02T21:45:13.837Z,2.10
2022-10-02T21:48:52.515Z,2.50
2022-10-02T21:52:32.285Z,2.13
2022-10-02T21:55:51.720Z,2.10
2022-10-02T21:59:17.932Z,2.10
2022-10-02T22:02:25.993Z,2.70
2022-10-02T22:05:38.253Z,2.03
2022-10-02T22:08:40.795Z,2.75
2022-10-02T22:11:59.959Z,2.22
2022-10-02T22:15:37.928Z,1.92
2022-10-02T22:19:19.838Z,2.80
2022-10-02T22:22:31.454Z,2.90
2022-10-02T22:25:46.698Z,2.35
2022-10-02T22:28:55.036Z,2.50
2022-10-02T22:32:37.098Z,2.30
2022-10-02T22:36:16.799Z,2.10
2022-10-02T22:39:24.594Z,2.00
2022-10-02T22:42:50.194Z,2.10
2022-10-02T22:46:17.162Z,2.42
2022-10-02T22:49:36.045Z,2.38
2022-10-02T22:52:51.168Z,2.25
2022-10-02T22:55:57.023Z,2.53
2022-10-02T22:59:35.315Z,2.13
2022-10-02T23:02:50.051Z,2.05
2022-10-02T23:06:02.074Z,2.20
2022-10-02T23:09:16.754Z,2.53
2022-10-02T23:12:58.204Z,2.17
2022-10-02T23:16:23.181Z,1.63
2022-10-02T23:19:38.737Z,2.20
2022-10-02T23:23:07.254Z,1.80
2022-10-02T23:26:17.429Z,2.28
2022-10-02T23:29:31.923Z,2.97
2022-10-02T23:33:00.842Z,2.03
2022-10-02T23:36:11.527Z,2.30
2022-10-02T23:39:29.674Z,2.10
2022-10-02T23:42:42.415Z,2.33
2022-10-02T23:45:54.757Z,2.10
2022-10-02T23:48:56.707Z,2.30
2022-10-02T23:52:46.755Z,2.50
2022-10-02T23:56:01.454Z,2.20
2022-10-02T23:59:37.155Z,3.08
